createdAt,value
2023-03-11T00:00:35.850Z,97411.22
2023-03-11T00:03:04.212Z,97414.69
2023-03-11T00:05:33.736Z,97417.25
2023-03-11T00:08:01.395Z,97417.31
2023-03-11T00:10:31.092Z,97404.47
2023-03-11T00:12:59.271Z,97408.69
2023-03-11T00:15:26.997Z,97418.09
2023-03-11T00:17:53.939Z,97388.13
2023-03-11T00:20:33.288Z,97400.91
2023-03-11T00:23:00.820Z,97398.47
2023-03-11T00:25:30.384Z,97397.47
2023-03-11T00:27:57.580Z,97395.75
2023-03-11T00:30:25.587Z,97402.66
2023-03-11T00:32:55.224Z,97399.28
2023-03-11T00:35:25.022Z,97388.97
2023-03-11T00:37:55.144Z,97377.25
2023-03-11T00:40:22.920Z,97373.72
2023-03-11T00:42:49.727Z,97385.63
2023-03-11T00:45:17.265Z,97395.78
2023-03-11T00:47:44.307Z,97389.81
2023-03-11T00:50:17.845Z,97383.88
2023-03-11T00:52:46.131Z,97394.03
2023-03-11T00:55:15.608Z,97388.19
2023-03-11T00:57:43.563Z,97382.13
2023-03-11T01:00:16.711Z,97391.44
2023-03-11T01:02:43.817Z,97389.66
2023-03-11T01:05:11.294Z,97393.16
2023-03-11T01:07:38.341Z,97398.34
2023-03-11T01:10:08.118Z,97399.97
2023-03-11T01:12:35.068Z,97388.84
2023-03-11T01:15:03.099Z,97395.63
2023-03-11T01:17:30.005Z,97392.19
2023-03-11T01:19:56.899Z,97398.25
2023-03-11T01:22:23.772Z,97394.00
2023-03-11T01:24:50.734Z,97390.53
2023-03-11T01:27:17.579Z,97388.00
2023-03-11T01:29:44.545Z,97391.34
2023-03-11T01:32:11.586Z,97370.97
2023-03-11T01:34:38.904Z,97390.56
2023-03-11T01:37:05.968Z,97389.69
2023-03-11T01:39:32.846Z,97398.31
2023-03-11T01:41:59.875Z,97382.06
2023-03-11T01:44:27.054Z,97393.91
2023-03-11T01:47:21.336Z,97393.09
2023-03-11T01:49:49.100Z,97387.13
2023-03-11T01:52:16.407Z,97370.16
2023-03-11T01:54:51.801Z,97379.41
2023-03-11T01:57:19.802Z,97382.81
2023-03-11T01:59:51.201Z,97380.28
2023-03-11T02:02:40.267Z,97376.00
2023-03-11T02:05:07.811Z,97358.25
2023-03-11T02:07:35.139Z,97380.38
2023-03-11T02:10:03.048Z,97380.38
2023-03-11T02:12:31.562Z,97369.28
2023-03-11T02:14:58.842Z,97378.59
2023-03-11T02:17:25.784Z,97382.00
2023-03-11T02:20:17.048Z,97372.59
2023-03-11T02:22:44.193Z,97379.38
2023-03-11T02:25:25.513Z,97380.28
2023-03-11T02:27:53.786Z,97380.22
2023-03-11T02:30:26.697Z,97380.22
2023-03-11T02:32:55.019Z,97381.97
2023-03-11T02:35:22.520Z,97384.63
2023-03-11T02:37:52.644Z,97390.53
2023-03-11T02:40:42.004Z,97399.19
2023-03-11T02:43:14.948Z,97396.50
2023-03-11T02:45:44.738Z,97386.34
2023-03-11T02:48:13.048Z,97393.97
2023-03-11T02:50:40.566Z,97391.41
2023-03-11T02:53:08.634Z,97379.53
2023-03-11T02:55:35.893Z,97399.13
2023-03-11T02:58:02.741Z,97411.91
2023-03-11T03:00:29.944Z,97399.16
2023-03-11T03:03:02.401Z,97398.22
2023-03-11T03:05:29.603Z,97396.63
2023-03-11T03:07:58.355Z,97407.75
2023-03-11T03:10:25.408Z,97406.13
2023-03-11T03:12:52.335Z,97402.69
2023-03-11T03:15:19.195Z,97405.97
2023-03-11T03:17:46.735Z,97417.06
2023-03-11T03:20:14.780Z,97412.78
2023-03-11T03:22:47.316Z,97422.13
2023-03-11T03:25:17.171Z,97422.06
2023-03-11T03:27:44.076Z,97412.69
2023-03-11T03:30:11.662Z,97427.19
2023-03-11T03:32:39.811Z,97411.88
2023-03-11T03:35:10.572Z,97425.53
2023-03-11T03:37:55.334Z,97418.69
2023-03-11T03:40:22.991Z,97423.84
2023-03-11T03:42:51.194Z,97434.19
2023-03-11T03:45:19.251Z,97426.41
2023-03-11T03:47:46.959Z,97430.69
2023-03-11T03:50:13.963Z,97429.84
2023-03-11T03:52:44.453Z,97438.34
2023-03-11T03:55:11.661Z,97450.28
2023-03-11T03:57:39.235Z,97452.91
2023-03-11T04:00:11.902Z,97454.63
2023-03-11T04:02:42.028Z,97447.72
2023-03-11T04:05:18.259Z,97455.41
2023-03-11T04:07:46.020Z,97453.72
2023-03-11T04:10:14.128Z,97462.31
2023-03-11T04:12:42.088Z,97444.28
2023-03-11T04:15:09.637Z,97444.31
2023-03-11T04:17:37.992Z,97455.47
2023-03-11T04:20:08.191Z,97434.97
2023-03-11T04:22:35.433Z,97452.00
2023-03-11T04:25:02.823Z,97452.03
2023-03-11T04:27:32.016Z,97456.34
2023-03-11T04:30:01.101Z,97458.88
2023-03-11T04:32:28.707Z,97456.31
2023-03-11T04:34:55.823Z,97461.41
2023-03-11T04:37:23.434Z,97467.41
2023-03-11T04:39:51.111Z,97477.66
2023-03-11T04:42:19.181Z,97481.91
2023-03-11T04:44:47.095Z,97484.44
2023-03-11T04:47:14.204Z,97483.59
2023-03-11T04:49:41.473Z,97470.00
2023-03-11T04:52:08.414Z,97482.78
2023-03-11T04:54:35.994Z,97484.44
2023-03-11T04:57:03.242Z,97488.72
2023-03-11T04:59:30.114Z,97496.41
2023-03-11T05:01:57.312Z,97511.75
2023-03-11T05:04:24.316Z,97515.16
2023-03-11T05:06:51.372Z,97523.75
2023-03-11T05:09:19.761Z,97515.13
2023-03-11T05:11:46.836Z,97524.50
2023-03-11T05:14:15.773Z,97498.88
2023-03-11T05:16:42.801Z,97521.06
2023-03-11T05:19:30.438Z,97516.78
2023-03-11T05:21:58.824Z,97515.91
2023-03-11T05:24:26.828Z,97517.66
2023-03-11T05:26:54.280Z,97521.88
2023-03-11T05:29:21.769Z,97513.34
2023-03-11T05:31:48.871Z,97527.88
2023-03-11T05:34:16.388Z,97522.78
2023-03-11T05:36:43.602Z,97522.78
2023-03-11T05:39:10.829Z,97541.50
2023-03-11T05:41:37.974Z,97541.53
2023-03-11T05:44:04.955Z,97556.91
2023-03-11T05:46:32.592Z,97550.03
2023-03-11T05:49:00.749Z,97561.19
2023-03-11T05:51:27.960Z,97565.41
2023-03-11T05:53:55.528Z,97572.22
2023-03-11T05:56:30.759Z,97568.84
2023-03-11T05:58:58.527Z,97579.91
2023-03-11T06:01:29.337Z,97573.94
2023-03-11T06:03:56.341Z,97577.38
2023-03-11T06:06:23.945Z,97588.47
2023-03-11T06:08:51.109Z,97600.38
2023-03-11T06:11:20.168Z,97604.63
2023-03-11T06:13:47.380Z,97614.88
2023-03-11T06:16:14.594Z,97608.91
2023-03-11T06:18:41.612Z,97614.94
2023-03-11T06:21:09.611Z,97636.19
2023-03-11T06:23:36.661Z,97638.78
2023-03-11T06:26:05.373Z,97625.09
2023-03-11T06:28:37.547Z,97631.94
2023-03-11T06:31:09.237Z,97636.19
2023-03-11T06:33:36.522Z,97643.88
2023-03-11T06:36:04.688Z,97652.38
2023-03-11T06:38:32.361Z,97655.81
2023-03-11T06:41:03.888Z,97653.25
2023-03-11T06:43:32.464Z,97661.75
2023-03-11T06:46:00.678Z,97667.72
2023-03-11T06:48:28.496Z,97675.41
2023-03-11T06:51:00.208Z,97673.69
2023-03-11T06:53:29.855Z,97666.84
2023-03-11T06:56:08.493Z,97680.53
2023-03-11T06:58:42.781Z,97686.47
2023-03-11T07:01:18.406Z,97689.91
2023-03-11T07:03:49.299Z,97690.72
2023-03-11T07:06:22.722Z,97703.50
2023-03-11T07:08:53.454Z,97710.31
2023-03-11T07:11:23.550Z,97703.47
2023-03-11T07:13:53.984Z,97705.16
2023-03-11T07:16:23.846Z,97700.91
2023-03-11T07:18:56.912Z,97718.84
2023-03-11T07:21:23.864Z,97720.50
2023-03-11T07:23:57.505Z,97726.47
2023-03-11T07:26:25.306Z,97731.56
2023-03-11T07:28:52.888Z,97738.41
2023-03-11T07:31:23.557Z,97744.38
2023-03-11T07:33:50.978Z,97752.06
2023-03-11T07:36:20.093Z,97758.00
2023-03-11T07:38:47.084Z,97754.59
2023-03-11T07:41:15.020Z,97758.00
2023-03-11T07:43:42.904Z,97757.13
2023-03-11T07:46:16.726Z,97768.25
2023-03-11T07:48:43.721Z,97769.94
2023-03-11T07:51:13.035Z,97778.47
2023-03-11T07:53:43.267Z,97773.38
2023-03-11T07:56:12.668Z,97776.78
2023-03-11T07:59:01.703Z,97777.66
2023-03-11T08:01:36.897Z,97788.72
2023-03-11T08:04:05.951Z,97797.25
2023-03-11T08:09:37.843Z,97795.50
2023-03-11T08:12:04.977Z,97808.31
2023-03-11T08:14:32.013Z,97821.13
2023-03-11T08:16:58.947Z,97816.84
2023-03-11T08:19:25.774Z,97826.22
2023-03-11T08:21:52.666Z,97829.63
2023-03-11T08:24:19.589Z,97839.88
2023-03-11T08:26:46.439Z,97841.56
2023-03-11T08:29:13.294Z,97849.22
2023-03-11T08:31:40.173Z,97848.38
2023-03-11T08:34:10.331Z,97849.22
2023-03-11T08:36:37.378Z,97868.00
2023-03-11T08:39:04.438Z,97863.72
2023-03-11T08:41:31.397Z,97869.75
2023-03-11T08:43:58.394Z,97874.00
2023-03-11T08:46:34.119Z,97889.34
2023-03-11T08:49:01.792Z,97897.03
2023-03-11T08:51:29.499Z,97905.56
2023-03-11T08:53:56.513Z,97892.75
2023-03-11T08:56:23.606Z,97894.44
2023-03-11T08:58:50.998Z,97897.00
2023-03-11T09:01:18.517Z,97894.41
2023-03-11T09:03:45.602Z,97907.19
2023-03-11T09:06:15.602Z,97897.75
2023-03-11T09:08:43.914Z,97904.59
2023-03-11T09:11:13.682Z,97915.69
2023-03-11T09:13:42.022Z,97920.00
2023-03-11T09:16:13.310Z,97943.03
2023-03-11T09:18:40.303Z,97937.94
2023-03-11T09:21:07.281Z,97935.38
2023-03-11T09:23:34.260Z,97954.16
2023-03-11T09:26:01.080Z,97955.00
2023-03-11T09:28:28.200Z,97962.69
2023-03-11T09:30:55.131Z,97972.91
2023-03-11T09:33:21.981Z,97971.19
2023-03-11T09:35:49.036Z,97971.16
2023-03-11T09:38:15.913Z,97968.63
2023-03-11T09:40:58.655Z,97981.44
2023-03-11T09:44:05.371Z,97976.28
2023-03-11T09:47:04.564Z,97996.75
2023-03-11T09:49:54.264Z,98003.59
2023-03-11T09:52:32.034Z,98012.13
2023-03-11T09:55:00.257Z,98011.25
2023-03-11T09:57:30.998Z,98008.75
2023-03-11T09:59:58.845Z,98008.72
2023-03-11T10:02:27.865Z,98015.59
2023-03-11T10:04:59.391Z,98034.38
2023-03-11T10:07:31.154Z,98028.38
2023-03-11T10:10:00.657Z,98042.06
2023-03-11T10:12:53.567Z,98051.41
2023-03-11T10:15:49.283Z,98055.69
2023-03-11T10:18:55.269Z,98054.81
2023-03-11T10:21:53.828Z,98065.06
2023-03-11T10:25:01.736Z,98065.88
2023-03-11T10:27:37.782Z,98068.47
2023-03-11T10:30:26.888Z,98077.88
2023-03-11T10:33:01.557Z,98076.19
2023-03-11T10:35:46.610Z,98081.28
2023-03-11T10:38:18.727Z,98091.50
2023-03-11T10:40:48.878Z,98081.25
2023-03-11T10:43:42.139Z,98095.75
2023-03-11T10:46:25.113Z,98080.41
2023-03-11T10:48:54.034Z,98085.50
2023-03-11T10:51:45.254Z,98094.91
2023-03-11T10:54:35.664Z,98095.75
2023-03-11T10:57:05.960Z,98094.03
2023-03-11T10:59:46.427Z,98102.59
2023-03-11T11:02:32.237Z,98117.09
2023-03-11T11:05:35.771Z,98105.19
2023-03-11T11:08:09.610Z,98123.16
2023-03-11T11:10:39.828Z,98135.13
2023-03-11T11:13:20.415Z,98143.69
2023-03-11T11:16:02.488Z,98149.66
2023-03-11T11:18:49.430Z,98149.66
2023-03-11T11:21:28.154Z,98153.09
2023-03-11T11:24:08.827Z,98170.16
2023-03-11T11:26:35.814Z,98178.69
2023-03-11T11:29:15.605Z,98169.31
2023-03-11T11:31:48.101Z,98165.91
2023-03-11T11:34:29.826Z,98169.31
2023-03-11T11:37:01.887Z,98174.44
2023-03-11T11:39:32.703Z,98177.00
2023-03-11T11:42:04.923Z,98183.81
2023-03-11T11:44:36.216Z,98181.28
2023-03-11T11:47:14.857Z,98182.97
2023-03-11T11:49:50.581Z,98182.97
2023-03-11T11:52:25.722Z,98188.00
2023-03-11T11:54:59.541Z,98193.09
2023-03-11T11:57:27.636Z,98189.63
2023-03-11T11:59:58.057Z,98199.91
2023-03-11T12:02:51.413Z,98203.38
2023-03-11T12:05:30.325Z,98211.97
2023-03-11T12:08:23.778Z,98212.00
2023-03-11T12:11:15.329Z,98222.25
2023-03-11T12:14:00.655Z,98217.94
2023-03-11T12:16:52.143Z,98226.50
2023-03-11T12:19:45.182Z,98227.34
2023-03-11T12:22:41.471Z,98223.94
2023-03-11T12:25:39.802Z,98227.38
2023-03-11T12:28:26.304Z,98228.22
2023-03-11T12:31:02.118Z,98228.22
2023-03-11T12:33:34.715Z,98235.06
2023-03-11T12:36:01.500Z,98241.06
2023-03-11T12:38:40.061Z,98236.78
2023-03-11T12:41:36.922Z,98249.59
2023-03-11T12:44:05.709Z,98258.13
2023-03-11T12:47:03.897Z,98266.66
2023-03-11T12:49:36.660Z,98256.41
2023-03-11T12:52:17.390Z,98268.34
2023-03-11T12:55:19.202Z,98258.13
2023-03-11T12:57:54.079Z,98263.25
2023-03-11T13:00:44.425Z,98258.97
2023-03-11T13:03:51.122Z,98274.38
2023-03-11T13:06:45.292Z,98288.06
2023-03-11T13:09:16.801Z,98288.91
2023-03-11T13:11:46.321Z,98291.47
2023-03-11T13:14:29.556Z,98297.44
2023-03-11T13:17:17.608Z,98299.19
2023-03-11T13:19:50.080Z,98308.59
2023-03-11T13:22:43.607Z,98318.81
2023-03-11T13:25:32.254Z,98319.69
2023-03-11T13:28:28.138Z,98323.94
2023-03-11T13:31:06.618Z,98322.22
2023-03-11T13:33:55.651Z,98323.09
2023-03-11T13:36:46.941Z,98332.50
2023-03-11T13:39:38.043Z,98348.75
2023-03-11T13:42:34.510Z,98345.31
2023-03-11T13:45:01.637Z,98344.47
2023-03-11T13:47:49.590Z,98355.59
2023-03-11T13:50:25.307Z,98361.56
2023-03-11T13:52:53.867Z,98357.31
2023-03-11T13:55:23.824Z,98359.88
2023-03-11T13:57:53.309Z,98344.47
2023-03-11T14:00:25.556Z,98361.56
2023-03-11T14:03:02.143Z,98376.97
2023-03-11T14:05:36.748Z,98391.50
2023-03-11T14:08:31.778Z,98389.78
2023-03-11T14:11:17.014Z,98400.06
2023-03-11T14:13:46.977Z,98394.91
2023-03-11T14:16:36.382Z,98414.59
2023-03-11T14:19:14.515Z,98408.63
2023-03-11T14:21:46.183Z,98418.88
2023-03-11T14:24:18.706Z,98412.03
2023-03-11T14:26:48.660Z,98424.84
2023-03-11T14:29:20.037Z,98418.88
2023-03-11T14:31:47.776Z,98418.88
2023-03-11T14:34:17.055Z,98431.69
2023-03-11T14:36:57.383Z,98430.88
2023-03-11T14:39:34.446Z,98424.00
2023-03-11T14:42:26.769Z,98449.66
2023-03-11T14:45:12.646Z,98441.13
2023-03-11T14:48:13.263Z,98447.97
2023-03-11T14:50:40.380Z,98449.66
2023-03-11T14:53:31.213Z,98451.38
2023-03-11T14:56:00.126Z,98453.94
2023-03-11T14:59:01.633Z,98465.94
2023-03-11T15:01:36.789Z,98477.03
2023-03-11T15:04:12.641Z,98470.19
2023-03-11T15:06:42.294Z,98466.75
2023-03-11T15:09:28.965Z,98462.47
2023-03-11T15:12:00.983Z,98482.13
2023-03-11T15:14:31.911Z,98481.28
2023-03-11T15:17:33.803Z,98490.66
2023-03-11T15:20:07.555Z,98488.97
2023-03-11T15:22:41.031Z,98483.81
2023-03-11T15:25:18.386Z,98488.97
2023-03-11T15:27:45.874Z,98501.78
2023-03-11T15:30:28.898Z,98504.38
2023-03-11T15:32:56.680Z,98499.22
2023-03-11T15:35:28.723Z,98497.53
2023-03-11T15:38:25.802Z,98501.78
2023-03-11T15:40:55.082Z,98511.16
2023-03-11T15:43:31.260Z,98511.97
2023-03-11T15:46:00.355Z,98512.00
2023-03-11T15:48:29.101Z,98512.81
2023-03-11T15:50:57.939Z,98516.25
2023-03-11T15:53:26.074Z,98523.09
2023-03-11T15:55:55.165Z,98516.25
2023-03-11T15:58:22.101Z,98523.94
2023-03-11T16:00:53.567Z,98525.63
2023-03-11T16:03:20.632Z,98527.34
2023-03-11T16:05:47.859Z,98522.19
2023-03-11T16:08:16.141Z,98529.91
2023-03-11T16:10:44.178Z,98529.06
2023-03-11T16:13:13.274Z,98531.63
2023-03-11T16:15:40.649Z,98529.91
2023-03-11T16:18:08.957Z,98541.81
2023-03-11T16:20:48.431Z,98552.88
2023-03-11T16:23:23.396Z,98556.31
2023-03-11T16:25:50.821Z,98546.84
2023-03-11T16:28:17.688Z,98559.66
2023-03-11T16:30:44.670Z,98557.97
2023-03-11T16:33:11.652Z,98563.06
2023-03-11T16:35:38.644Z,98565.56
2023-03-11T16:38:09.224Z,98577.50
2023-03-11T16:40:37.746Z,98580.84
2023-03-11T16:43:14.270Z,98591.03
2023-03-11T16:45:42.991Z,98581.53
2023-03-11T16:48:12.878Z,98596.06
2023-03-11T16:50:42.350Z,98602.88
2023-03-11T16:53:10.588Z,98607.94
2023-03-11T16:55:38.558Z,98616.41
2023-03-11T16:58:07.236Z,98611.22
2023-03-11T17:00:34.988Z,98617.19
2023-03-11T17:03:04.955Z,98612.06
2023-03-11T17:05:33.542Z,98630.88
2023-03-11T17:08:05.343Z,98618.88
2023-03-11T17:10:38.700Z,98627.47
2023-03-11T17:13:08.594Z,98631.84
2023-03-11T17:15:39.166Z,98635.25
2023-03-11T17:18:06.352Z,98628.47
2023-03-11T17:20:35.099Z,98632.78
2023-03-11T17:23:02.860Z,98638.72
2023-03-11T17:25:31.186Z,98641.22
2023-03-11T17:27:58.366Z,98641.19
2023-03-11T17:30:36.330Z,98646.25
2023-03-11T17:33:05.516Z,98640.28
2023-03-11T17:35:33.120Z,98649.66
2023-03-11T17:38:00.668Z,98653.91
2023-03-11T17:40:30.718Z,98663.25
2023-03-11T17:42:58.569Z,98660.63
2023-03-11T17:45:26.272Z,98669.91
2023-03-11T17:47:54.807Z,98669.03
2023-03-11T17:50:24.608Z,98661.41
2023-03-11T17:52:53.478Z,98660.59
2023-03-11T17:55:21.635Z,98667.41
2023-03-11T17:57:48.545Z,98678.59
2023-03-11T18:00:16.530Z,98674.34
2023-03-11T18:02:44.181Z,98673.47
2023-03-11T18:05:11.017Z,98677.66
2023-03-11T18:07:41.456Z,98675.88
2023-03-11T18:10:14.017Z,98686.91
2023-03-11T18:12:48.614Z,98678.38
2023-03-11T18:15:19.793Z,98681.78
2023-03-11T18:17:47.738Z,98681.72
2023-03-11T18:20:15.447Z,98687.63
2023-03-11T18:22:46.675Z,98685.00
2023-03-11T18:25:15.566Z,98687.56
2023-03-11T18:27:43.513Z,98685.84
2023-03-11T18:30:12.225Z,98688.34
2023-03-11T18:32:39.494Z,98688.28
2023-03-11T18:35:07.198Z,98687.34
2023-03-11T18:37:34.341Z,98687.34
2023-03-11T18:40:01.580Z,98682.22
2023-03-11T18:42:28.481Z,98687.34
2023-03-11T18:44:55.432Z,98691.56
2023-03-11T18:47:22.578Z,98684.75
2023-03-11T18:49:50.015Z,98691.53
2023-03-11T18:52:16.850Z,98694.13
2023-03-11T18:54:44.547Z,98689.84
2023-03-11T18:57:12.283Z,98691.47
2023-03-11T18:59:39.533Z,98687.22
2023-03-11T19:02:06.734Z,98699.13
2023-03-11T19:04:33.804Z,98693.13
2023-03-11T19:07:00.779Z,98699.94
2023-03-11T19:09:27.567Z,98700.78
2023-03-11T19:11:54.504Z,98705.03
2023-03-11T19:14:21.572Z,98701.56
2023-03-11T19:16:49.177Z,98694.75
2023-03-11T19:19:17.908Z,98706.75
2023-03-11T19:21:47.669Z,98702.47
2023-03-11T19:24:16.312Z,98705.84
2023-03-11T19:26:46.000Z,98704.19
2023-03-11T19:29:17.739Z,98716.13
2023-03-11T19:31:45.367Z,98713.50
2023-03-11T19:34:12.304Z,98702.41
2023-03-11T19:36:39.600Z,98706.69
2023-03-11T19:39:08.030Z,98720.31
2023-03-11T19:41:35.033Z,98716.13
2023-03-11T19:44:04.306Z,98719.59
2023-03-11T19:46:35.125Z,98716.19
2023-03-11T19:49:03.236Z,98714.41
2023-03-11T19:51:46.475Z,98717.91
2023-03-11T19:54:16.566Z,98718.69
2023-03-11T19:56:44.880Z,98717.81
2023-03-11T19:59:11.977Z,98723.81
2023-03-11T20:01:39.064Z,98720.38
2023-03-11T20:04:06.453Z,98727.19
2023-03-11T20:06:33.656Z,98727.22
2023-03-11T20:09:00.812Z,98732.31
2023-03-11T20:11:27.968Z,98723.75
2023-03-11T20:13:55.179Z,98723.75
2023-03-11T20:16:22.715Z,98724.50
2023-03-11T20:18:50.885Z,98719.44
2023-03-11T20:21:18.198Z,98716.84
2023-03-11T20:23:45.042Z,98717.72
2023-03-11T20:26:15.087Z,98716.03
2023-03-11T20:28:42.437Z,98722.03
2023-03-11T20:31:12.214Z,98716.97
2023-03-11T20:33:39.170Z,98722.00
2023-03-11T20:36:07.860Z,98722.88
2023-03-11T20:38:35.345Z,98722.88
2023-03-11T20:41:05.937Z,98723.72
2023-03-11T20:43:33.969Z,98710.84
2023-03-11T20:46:01.027Z,98716.81
2023-03-11T20:48:28.221Z,98711.63
2023-03-11T20:51:03.972Z,98712.38
2023-03-11T20:53:31.726Z,98710.75
2023-03-11T20:55:59.825Z,98708.22
2023-03-11T20:58:26.754Z,98706.63
2023-03-11T21:00:53.677Z,98705.09
2023-03-11T21:03:20.592Z,98694.09
2023-03-11T21:05:47.762Z,98685.66
2023-03-11T21:08:14.829Z,98696.88
2023-03-11T21:10:42.192Z,98684.09
2023-03-11T21:13:09.286Z,98680.75
2023-03-11T21:15:36.307Z,98678.25
2023-03-11T21:18:03.601Z,98674.84
2023-03-11T21:20:30.622Z,98667.22
2023-03-11T21:22:57.604Z,98665.53
2023-03-11T21:25:24.479Z,98667.28
2023-03-11T21:27:51.427Z,98665.59
2023-03-11T21:30:18.559Z,98660.41
2023-03-11T21:32:45.714Z,98658.63
2023-03-11T21:35:12.676Z,98661.06
2023-03-11T21:37:39.712Z,98668.84
2023-03-11T21:40:07.747Z,98668.09
2023-03-11T21:42:34.654Z,98669.00
2023-03-11T21:45:01.577Z,98663.03
2023-03-11T21:47:28.548Z,98651.88
2023-03-11T21:49:55.419Z,98652.63
2023-03-11T21:52:22.640Z,98652.53
2023-03-11T21:54:49.639Z,98644.78
2023-03-11T21:57:16.666Z,98637.97
2023-03-11T21:59:43.610Z,98643.97
2023-03-11T22:02:14.009Z,98627.75
2023-03-11T22:04:41.825Z,98624.41
2023-03-11T22:07:09.696Z,98627.81
2023-03-11T22:09:37.162Z,98620.97
2023-03-11T22:12:04.424Z,98620.94
2023-03-11T22:14:31.421Z,98619.16
2023-03-11T22:16:58.401Z,98607.09
2023-03-11T22:19:25.301Z,98611.22
2023-03-11T22:21:52.296Z,98608.53
2023-03-11T22:24:19.293Z,98604.06
2023-03-11T22:26:46.308Z,98598.94
2023-03-11T22:29:13.817Z,98602.41
2023-03-11T22:31:40.930Z,98593.97
2023-03-11T22:34:07.872Z,98589.66
2023-03-11T22:36:34.746Z,98587.00
2023-03-11T22:39:04.400Z,98583.41
2023-03-11T22:41:31.895Z,98581.69
2023-03-11T22:43:58.960Z,98586.75
2023-03-11T22:46:26.277Z,98578.28
2023-03-11T22:48:53.201Z,98567.22
2023-03-11T22:51:20.020Z,98569.06
2023-03-11T22:53:47.014Z,98562.38
2023-03-11T22:56:15.667Z,98565.06
2023-03-11T22:58:42.756Z,98568.63
2023-03-11T23:01:09.962Z,98557.66
2023-03-11T23:03:37.634Z,98549.16
2023-03-11T23:06:07.467Z,98548.34
2023-03-11T23:08:34.865Z,98544.94
2023-03-11T23:11:04.035Z,98553.47
2023-03-11T23:13:31.371Z,98556.03
2023-03-11T23:16:04.679Z,98561.13
2023-03-11T23:18:31.614Z,98566.28
2023-03-11T23:20:58.449Z,98565.47
2023-03-11T23:23:25.558Z,98565.50
2023-03-11T23:25:52.385Z,98575.78
2023-03-11T23:28:19.419Z,98580.09
2023-03-11T23:30:46.441Z,98573.34
2023-03-11T23:33:13.288Z,98572.53
2023-03-11T23:35:42.098Z,98574.25
2023-03-11T23:38:09.516Z,98565.78
2023-03-11T23:40:36.568Z,98563.28
2023-03-11T23:43:03.362Z,98571.91
2023-03-11T23:45:30.259Z,98560.81
2023-03-11T23:47:57.118Z,98560.84
2023-03-11T23:50:24.086Z,98565.97
2023-03-11T23:52:51.017Z,98559.19
2023-03-11T23:55:17.885Z,98560.91
2023-03-11T23:57:44.881Z,98566.94
